createdAt,value
2019-02-21T00:04:30.035Z,4.10
2019-02-21T00:09:35.500Z,3.20
2019-02-21T00:14:40.896Z,3.90
2019-02-21T00:19:46.140Z,2.98
2019-02-21T00:24:51.575Z,4.83
2019-02-21T00:29:56.919Z,3.33
2019-02-21T00:35:02.607Z,5.10
2019-02-21T00:40:08.322Z,4.23
2019-02-21T00:45:13.741Z,4.13
2019-02-21T00:50:19.301Z,5.10
2019-02-21T00:55:27.696Z,4.50
2019-02-21T01:00:32.137Z,4.80
2019-02-21T01:05:37.638Z,3.63
2019-02-21T01:10:43.074Z,4.83
2019-02-21T01:15:48.491Z,5.10
2019-02-21T01:20:53.878Z,4.80
2019-02-21T01:25:59.352Z,5.13
2019-02-21T01:31:05.196Z,4.57
2019-02-21T01:36:10.596Z,4.87
2019-02-21T01:41:15.931Z,3.27
2019-02-21T01:46:21.430Z,5.13
2019-02-21T01:51:26.832Z,4.87
2019-02-21T01:56:32.261Z,3.97
2019-02-21T02:01:37.655Z,5.60
2019-02-21T02:06:43.136Z,4.87
2019-02-21T02:11:48.371Z,4.90
2019-02-21T02:16:53.675Z,4.20
2019-02-21T02:21:58.930Z,5.60
2019-02-21T02:27:04.391Z,4.37
2019-02-21T02:32:09.995Z,5.60
2019-02-21T02:37:15.372Z,6.03
2019-02-21T02:42:20.657Z,4.93
2019-02-21T02:47:26.091Z,5.80
2019-02-21T02:52:31.514Z,4.20
2019-02-21T02:57:36.870Z,3.80
2019-02-21T03:02:43.263Z,4.33
2019-02-21T03:07:48.660Z,4.70
2019-02-21T03:12:54.071Z,4.37
2019-02-21T03:17:59.466Z,6.87
2019-02-21T03:23:04.970Z,4.73
2019-02-21T03:28:10.278Z,5.57
2019-02-21T03:33:15.563Z,4.47
2019-02-21T03:38:20.989Z,4.23
2019-02-21T03:43:26.362Z,5.67
2019-02-21T03:48:31.814Z,3.70
2019-02-21T03:53:37.149Z,4.97
2019-02-21T03:58:42.965Z,2.72
2019-02-21T04:03:48.452Z,2.47
2019-02-21T04:08:53.870Z,4.33
2019-02-21T04:13:59.185Z,5.43
2019-02-21T04:19:04.821Z,4.20
2019-02-21T04:24:10.179Z,3.70
2019-02-21T04:29:15.568Z,3.83
2019-02-21T04:34:21.066Z,3.77
2019-02-21T04:39:26.461Z,3.67
2019-02-21T04:44:31.751Z,3.02
2019-02-21T04:49:37.095Z,3.77
2019-02-21T04:54:42.377Z,4.17
2019-02-21T04:59:47.842Z,3.92
2019-02-21T05:04:53.185Z,2.87
2019-02-21T05:09:59.427Z,4.53
2019-02-21T05:15:04.895Z,3.53
2019-02-21T05:20:10.367Z,3.17
2019-02-21T05:25:15.596Z,3.33
2019-02-21T05:30:23.669Z,3.23
2019-02-21T05:35:37.100Z,3.83
2019-02-21T05:40:50.307Z,3.67
2019-02-21T05:46:04.052Z,3.60
2019-02-21T05:51:15.915Z,3.77
2019-02-21T05:56:30.065Z,2.80
2019-02-21T06:01:43.173Z,3.63
2019-02-21T06:06:56.715Z,3.52
2019-02-21T06:12:11.062Z,3.17
2019-02-21T06:17:25.157Z,3.33
2019-02-21T06:22:43.927Z,2.50
2019-02-21T06:27:54.542Z,4.37
2019-02-21T06:33:04.930Z,3.27
2019-02-21T06:38:07.053Z,3.97
2019-02-21T06:43:12.426Z,4.33
2019-02-21T06:48:17.856Z,3.37
2019-02-21T06:53:23.156Z,4.43
2019-02-21T06:58:28.610Z,3.17
2019-02-21T07:03:34.845Z,3.92
2019-02-21T07:08:40.338Z,3.47
2019-02-21T07:13:47.666Z,2.57
2019-02-21T07:18:52.943Z,2.97
2019-02-21T07:23:58.240Z,4.37
2019-02-21T07:29:05.940Z,3.37
2019-02-21T07:34:11.320Z,3.90
2019-02-21T07:39:20.604Z,4.23
2019-02-21T07:44:24.209Z,4.77
2019-02-21T07:49:29.694Z,2.77
2019-02-21T07:54:35.213Z,3.53
2019-02-21T07:59:40.626Z,4.13
2019-02-21T08:04:46.114Z,3.97
2019-02-21T08:09:51.756Z,3.13
2019-02-21T08:14:57.322Z,4.30
2019-02-21T08:20:08.373Z,6.07
2019-02-21T08:25:10.711Z,3.53
2019-02-21T08:30:16.700Z,4.13
2019-02-21T08:35:22.220Z,5.50
2019-02-21T08:40:27.566Z,6.90
2019-02-21T08:45:32.913Z,4.47
2019-02-21T08:50:38.311Z,4.67
2019-02-21T08:55:43.955Z,4.90
2019-02-21T09:00:49.308Z,3.47
2019-02-21T09:05:54.750Z,4.30
2019-02-21T09:11:03.964Z,4.20
2019-02-21T09:16:09.010Z,5.90
2019-02-21T09:21:15.375Z,3.60
2019-02-21T09:26:22.416Z,5.97
2019-02-21T09:31:27.786Z,5.83
2019-02-21T09:36:33.245Z,5.60
2019-02-21T09:41:38.545Z,6.73
2019-02-21T09:46:43.916Z,3.75
2019-02-21T09:51:49.574Z,4.53
2019-02-21T09:56:55.043Z,2.97
2019-02-21T10:02:02.820Z,3.80
2019-02-21T10:07:08.345Z,2.97
2019-02-21T10:12:13.754Z,3.33
2019-02-21T10:17:19.067Z,3.57
2019-02-21T10:22:26.053Z,3.33
2019-02-21T10:27:31.437Z,2.90
2019-02-21T10:32:36.910Z,3.13
2019-02-21T10:37:42.314Z,3.75
2019-02-21T10:42:49.886Z,1.87
2019-02-21T10:47:55.174Z,3.90
2019-02-21T10:53:00.421Z,2.17
2019-02-21T10:58:05.938Z,3.33
2019-02-21T11:03:11.505Z,1.77
2019-02-21T11:08:16.868Z,2.93
2019-02-21T11:13:26.205Z,3.43
2019-02-21T11:18:31.513Z,1.60
2019-02-21T11:23:37.013Z,2.63
2019-02-21T11:28:42.324Z,1.90
2019-02-21T11:33:47.692Z,2.58
2019-02-21T11:38:53.123Z,2.58
2019-02-21T11:43:58.429Z,2.80
2019-02-21T11:49:03.973Z,2.10
2019-02-21T11:54:09.346Z,3.30
2019-02-21T11:59:16.107Z,2.57
2019-02-21T12:04:21.493Z,1.87
2019-02-21T12:09:26.890Z,2.07
2019-02-21T12:14:32.354Z,2.53
2019-02-21T12:19:37.745Z,2.37
2019-02-21T12:24:44.100Z,2.60
2019-02-21T12:29:49.494Z,2.27
2019-02-21T12:34:55.059Z,3.63
2019-02-21T12:40:00.519Z,3.00
2019-02-21T12:45:07.231Z,2.83
2019-02-21T12:50:13.080Z,3.83
2019-02-21T12:55:27.024Z,3.33
2019-02-21T13:00:25.630Z,2.80
2019-02-21T13:05:40.346Z,3.60
2019-02-21T13:10:38.220Z,2.70
2019-02-21T13:15:43.640Z,2.50
2019-02-21T13:20:49.094Z,3.97
2019-02-21T13:25:54.472Z,2.70
2019-02-21T13:31:00.001Z,4.10
2019-02-21T13:36:07.211Z,4.12
2019-02-21T13:41:12.639Z,3.23
2019-02-21T13:46:18.147Z,4.47
2019-02-21T13:51:23.686Z,3.85
2019-02-21T13:56:29.215Z,3.50
2019-02-21T14:01:34.713Z,3.70
2019-02-21T14:06:39.984Z,4.93
2019-02-21T14:11:45.314Z,4.90
2019-02-21T14:16:50.654Z,4.03
2019-02-21T14:21:57.439Z,4.77
2019-02-21T14:27:02.789Z,3.50
2019-02-21T14:32:08.192Z,4.80
2019-02-21T14:37:13.560Z,5.33
2019-02-21T14:42:18.818Z,4.97
2019-02-21T14:47:24.378Z,4.10
2019-02-21T14:52:29.834Z,5.53
2019-02-21T14:57:40.963Z,5.53
2019-02-21T15:02:42.734Z,5.80
2019-02-21T15:07:48.125Z,6.35
2019-02-21T15:12:53.363Z,4.62
2019-02-21T15:18:06.840Z,6.03
2019-02-21T15:23:05.915Z,5.20
2019-02-21T15:28:11.470Z,5.43
2019-02-21T15:33:16.823Z,6.03
2019-02-21T15:38:22.316Z,5.50
2019-02-21T15:43:27.765Z,6.77
2019-02-21T15:48:33.221Z,6.03
2019-02-21T15:53:40.098Z,5.40
2019-02-21T15:58:45.388Z,6.63
2019-02-21T16:03:50.628Z,5.53
2019-02-21T16:08:56.118Z,5.87
2019-02-21T16:14:03.523Z,5.33
2019-02-21T16:19:08.665Z,6.40
2019-02-21T16:24:14.189Z,5.93
2019-02-21T16:29:19.650Z,6.60
2019-02-21T16:34:25.151Z,5.50
2019-02-21T16:39:30.650Z,6.00
2019-02-21T16:44:37.449Z,5.47
2019-02-21T16:49:44.313Z,5.97
2019-02-21T16:54:49.866Z,6.80
2019-02-21T16:59:55.386Z,5.43
2019-02-21T17:05:01.005Z,5.67
2019-02-21T17:10:07.031Z,5.97
2019-02-21T17:15:13.173Z,6.80
2019-02-21T17:20:18.809Z,8.43
2019-02-21T17:25:24.323Z,7.03
2019-02-21T17:30:29.732Z,6.97
2019-02-21T17:35:35.309Z,7.20
2019-02-21T17:40:40.993Z,6.13
2019-02-21T17:45:46.478Z,6.10
2019-02-21T17:50:52.011Z,7.10
2019-02-21T17:55:59.351Z,7.27
2019-02-21T18:01:07.523Z,7.77
2019-02-21T18:06:12.891Z,7.07
2019-02-21T18:11:18.379Z,7.57
2019-02-21T18:16:23.929Z,8.10
2019-02-21T18:21:29.527Z,7.80
2019-02-21T18:26:35.069Z,6.80
2019-02-21T18:31:40.343Z,8.43
2019-02-21T18:36:45.702Z,9.18
2019-02-21T18:41:51.203Z,8.40
2019-02-21T18:46:57.226Z,8.80
2019-02-21T18:52:02.771Z,7.47
2019-02-21T18:57:08.179Z,9.00
2019-02-21T19:02:13.648Z,8.77
2019-02-21T19:07:19.001Z,8.30
2019-02-21T19:12:24.433Z,8.33
2019-02-21T19:17:30.049Z,9.50
2019-02-21T19:22:36.917Z,7.73
2019-02-21T19:27:42.577Z,8.70
2019-02-21T19:32:48.582Z,8.93
2019-02-21T19:37:54.105Z,7.87
2019-02-21T19:42:59.830Z,7.43
2019-02-21T19:48:05.255Z,8.50
2019-02-21T19:53:10.978Z,9.13
2019-02-21T19:58:16.827Z,13.97
2019-02-21T20:03:22.464Z,11.03
2019-02-21T20:08:27.931Z,11.80
2019-02-21T20:13:34.678Z,10.23
2019-02-21T20:18:40.286Z,9.33
2019-02-21T20:23:45.918Z,8.90
2019-02-21T20:28:51.214Z,8.23
2019-02-21T20:33:56.511Z,8.07
2019-02-21T20:39:02.206Z,8.37
2019-02-21T20:44:09.872Z,8.43
2019-02-21T20:49:15.264Z,8.43
2019-02-21T20:54:20.646Z,7.50
2019-02-21T20:59:26.252Z,7.90
2019-02-21T21:04:31.663Z,7.53
2019-02-21T21:09:37.461Z,9.00
2019-02-21T21:14:42.757Z,7.90
2019-02-21T21:19:48.126Z,7.47
2019-02-21T21:24:53.498Z,7.53
2019-02-21T21:29:58.874Z,7.13
2019-02-21T21:35:04.616Z,7.97
2019-02-21T21:40:13.146Z,7.93
2019-02-21T21:45:18.779Z,7.43
2019-02-21T21:50:24.442Z,6.77
2019-02-21T21:55:32.856Z,7.33
2019-02-21T22:00:38.307Z,6.90
2019-02-21T22:05:44.054Z,6.73
2019-02-21T22:10:49.434Z,7.40
2019-02-21T22:15:55.081Z,7.37
2019-02-21T22:21:02.848Z,6.63
2019-02-21T22:26:08.410Z,6.30
2019-02-21T22:31:14.006Z,7.17
2019-02-21T22:36:19.652Z,6.87
2019-02-21T22:41:25.136Z,7.23
2019-02-21T22:46:32.402Z,5.63
2019-02-21T22:51:37.833Z,5.93
2019-02-21T22:56:43.238Z,6.30
2019-02-21T23:01:49.469Z,6.30
2019-02-21T23:07:07.549Z,5.83
2019-02-21T23:12:12.921Z,5.90
2019-02-21T23:17:18.417Z,5.83
2019-02-21T23:22:23.865Z,5.73
2019-02-21T23:27:29.240Z,5.73
2019-02-21T23:32:34.950Z,5.10
2019-02-21T23:37:40.267Z,5.30
2019-02-21T23:42:45.669Z,4.87
2019-02-21T23:47:51.092Z,4.93
2019-02-21T23:52:56.410Z,4.97
2019-02-21T23:58:01.781Z,4.37
